sensor_id;sensor_type;location;lat;lon;timestamp;P1;durP1;ratioP1;P2;durP2;ratioP2
55146;SDS011;41039;49.830;23.988;2022-12-10T00:01:30;26.75;;;17.77;;
55146;SDS011;41039;49.830;23.988;2022-12-10T00:03:56;29.85;;;17.50;;
55146;SDS011;41039;49.830;23.988;2022-12-10T00:06:22;31.23;;;17.30;;
55146;SDS011;41039;49.830;23.988;2022-12-10T00:08:48;27.85;;;17.83;;
55146;SDS011;41039;49.830;23.988;2022-12-10T00:11:14;30.00;;;18.17;;
55146;SDS011;41039;49.830;23.988;2022-12-10T00:13:40;31.63;;;17.13;;
55146;SDS011;41039;49.830;23.988;2022-12-10T00:16:07;30.58;;;19.40;;
55146;SDS011;41039;49.830;23.988;2022-12-10T00:18:32;29.55;;;18.23;;
55146;SDS011;41039;49.830;23.988;2022-12-10T00:20:58;29.67;;;17.65;;
55146;SDS011;41039;49.830;23.988;2022-12-10T00:23:23;29.05;;;17.38;;
55146;SDS011;41039;49.830;23.988;2022-12-10T00:25:48;32.70;;;17.38;;
55146;SDS011;41039;49.830;23.988;2022-12-10T00:28:14;29.83;;;18.27;;
55146;SDS011;41039;49.830;23.988;2022-12-10T00:30:39;29.70;;;18.05;;
55146;SDS011;41039;49.830;23.988;2022-12-10T00:33:04;29.30;;;19.02;;
55146;SDS011;41039;49.830;23.988;2022-12-10T00:35:30;30.35;;;19.17;;
55146;SDS011;41039;49.830;23.988;2022-12-10T00:37:55;30.98;;;18.73;;
55146;SDS011;41039;49.830;23.988;2022-12-10T00:40:20;27.17;;;18.05;;
55146;SDS011;41039;49.830;23.988;2022-12-10T00:42:46;30.92;;;19.77;;
55146;SDS011;41039;49.830;23.988;2022-12-10T00:45:11;32.05;;;20.08;;
55146;SDS011;41039;49.830;23.988;2022-12-10T00:47:36;30.88;;;18.73;;
55146;SDS011;41039;49.830;23.988;2022-12-10T00:50:01;27.10;;;17.25;;
55146;SDS011;41039;49.830;23.988;2022-12-10T00:52:27;27.98;;;17.88;;
55146;SDS011;41039;49.830;23.988;2022-12-10T00:54:52;33.45;;;19.52;;
55146;SDS011;41039;49.830;23.988;2022-12-10T00:57:17;28.08;;;18.48;;
55146;SDS011;41039;49.830;23.988;2022-12-10T00:59:42;32.15;;;18.40;;
55146;SDS011;41039;49.830;23.988;2022-12-10T01:02:08;30.15;;;18.40;;
55146;SDS011;41039;49.830;23.988;2022-12-10T01:04:33;29.88;;;19.73;;
55146;SDS011;41039;49.830;23.988;2022-12-10T01:06:58;30.95;;;20.48;;
55146;SDS011;41039;49.830;23.988;2022-12-10T01:09:25;30.67;;;20.25;;
55146;SDS011;41039;49.830;23.988;2022-12-10T01:11:51;28.42;;;18.52;;
55146;SDS011;41039;49.830;23.988;2022-12-10T01:14:24;34.70;;;18.60;;
55146;SDS011;41039;49.830;23.988;2022-12-10T01:16:53;31.42;;;18.70;;
55146;SDS011;41039;49.830;23.988;2022-12-10T01:19:18;32.25;;;20.65;;
55146;SDS011;41039;49.830;23.988;2022-12-10T01:21:44;35.22;;;18.50;;
55146;SDS011;41039;49.830;23.988;2022-12-10T01:24:09;31.60;;;18.65;;
55146;SDS011;41039;49.830;23.988;2022-12-10T01:26:34;32.40;;;19.08;;
55146;SDS011;41039;49.830;23.988;2022-12-10T01:29:00;28.83;;;17.70;;
55146;SDS011;41039;49.830;23.988;2022-12-10T01:31:27;28.55;;;18.25;;
55146;SDS011;41039;49.830;23.988;2022-12-10T01:33:52;29.23;;;18.30;;
55146;SDS011;41039;49.830;23.988;2022-12-10T01:38:43;29.98;;;19.08;;
55146;SDS011;41039;49.830;23.988;2022-12-10T01:41:13;31.83;;;18.17;;
55146;SDS011;41039;49.830;23.988;2022-12-10T01:43:53;28.20;;;16.75;;
55146;SDS011;41039;49.830;23.988;2022-12-10T01:46:18;30.52;;;17.55;;
55146;SDS011;41039;49.830;23.988;2022-12-10T01:48:44;30.65;;;16.58;;
55146;SDS011;41039;49.830;23.988;2022-12-10T01:51:10;31.73;;;18.08;;
55146;SDS011;41039;49.830;23.988;2022-12-10T01:53:35;30.40;;;17.05;;
55146;SDS011;41039;49.830;23.988;2022-12-10T01:56:01;28.70;;;16.92;;
55146;SDS011;41039;49.830;23.988;2022-12-10T01:58:26;40.70;;;20.17;;
55146;SDS011;41039;49.830;23.988;2022-12-10T02:01:39;27.77;;;15.98;;
55146;SDS011;41039;49.830;23.988;2022-12-10T02:03:56;32.40;;;17.30;;
55146;SDS011;41039;49.830;23.988;2022-12-10T02:08:59;28.13;;;15.63;;
55146;SDS011;41039;49.830;23.988;2022-12-10T02:11:29;28.58;;;15.88;;
55146;SDS011;41039;49.830;23.988;2022-12-10T02:14:09;25.30;;;16.13;;
55146;SDS011;41039;49.830;23.988;2022-12-10T02:16:38;24.20;;;14.40;;
55146;SDS011;41039;49.830;23.988;2022-12-10T02:21:42;26.85;;;14.38;;
55146;SDS011;41039;49.830;23.988;2022-12-10T02:24:10;26.17;;;15.98;;
55146;SDS011;41039;49.830;23.988;2022-12-10T02:26:49;30.35;;;16.17;;
55146;SDS011;41039;49.830;23.988;2022-12-10T02:29:20;23.75;;;13.63;;
55146;SDS011;41039;49.830;23.988;2022-12-10T02:31:55;25.52;;;14.45;;
55146;SDS011;41039;49.830;23.988;2022-12-10T02:34:22;26.52;;;15.02;;
55146;SDS011;41039;49.830;23.988;2022-12-10T02:36:48;29.58;;;15.75;;
55146;SDS011;41039;49.830;23.988;2022-12-10T02:39:18;27.05;;;15.00;;
55146;SDS011;41039;49.830;23.988;2022-12-10T02:41:48;25.95;;;15.93;;
55146;SDS011;41039;49.830;23.988;2022-12-10T02:44:14;29.15;;;17.40;;
55146;SDS011;41039;49.830;23.988;2022-12-10T02:46:42;22.20;;;13.85;;
55146;SDS011;41039;49.830;23.988;2022-12-10T02:49:09;27.08;;;15.05;;
55146;SDS011;41039;49.830;23.988;2022-12-10T02:51:36;26.02;;;14.88;;
55146;SDS011;41039;49.830;23.988;2022-12-10T02:54:03;26.55;;;14.98;;
55146;SDS011;41039;49.830;23.988;2022-12-10T02:59:10;23.42;;;14.77;;
55146;SDS011;41039;49.830;23.988;2022-12-10T03:04:10;22.77;;;14.02;;
55146;SDS011;41039;49.830;23.988;2022-12-10T03:06:40;24.00;;;14.27;;
55146;SDS011;41039;49.830;23.988;2022-12-10T03:09:19;22.20;;;13.75;;
55146;SDS011;41039;49.830;23.988;2022-12-10T03:11:46;23.08;;;13.68;;
55146;SDS011;41039;49.830;23.988;2022-12-10T03:14:13;22.98;;;14.32;;
55146;SDS011;41039;49.830;23.988;2022-12-10T03:16:41;23.65;;;13.82;;
55146;SDS011;41039;49.830;23.988;2022-12-10T03:19:11;25.58;;;14.32;;
55146;SDS011;41039;49.830;23.988;2022-12-10T03:21:37;21.73;;;12.57;;
55146;SDS011;41039;49.830;23.988;2022-12-10T03:24:05;22.65;;;13.93;;
55146;SDS011;41039;49.830;23.988;2022-12-10T03:26:30;25.17;;;14.02;;
55146;SDS011;41039;49.830;23.988;2022-12-10T03:28:57;23.40;;;14.25;;
55146;SDS011;41039;49.830;23.988;2022-12-10T03:31:23;22.45;;;13.90;;
55146;SDS011;41039;49.830;23.988;2022-12-10T03:33:49;23.42;;;14.68;;
55146;SDS011;41039;49.830;23.988;2022-12-10T03:36:15;21.23;;;13.70;;
55146;SDS011;41039;49.830;23.988;2022-12-10T03:38:40;22.02;;;13.98;;
55146;SDS011;41039;49.830;23.988;2022-12-10T03:41:06;23.85;;;13.73;;
55146;SDS011;41039;49.830;23.988;2022-12-10T03:43:32;23.90;;;14.27;;
55146;SDS011;41039;49.830;23.988;2022-12-10T03:45:57;21.55;;;12.80;;
55146;SDS011;41039;49.830;23.988;2022-12-10T03:48:22;19.55;;;12.73;;
55146;SDS011;41039;49.830;23.988;2022-12-10T03:50:48;18.75;;;11.88;;
55146;SDS011;41039;49.830;23.988;2022-12-10T03:53:13;24.05;;;13.20;;
55146;SDS011;41039;49.830;23.988;2022-12-10T03:55:38;19.15;;;12.55;;
55146;SDS011;41039;49.830;23.988;2022-12-10T03:58:03;19.27;;;12.20;;
55146;SDS011;41039;49.830;23.988;2022-12-10T04:00:29;23.08;;;14.20;;
55146;SDS011;41039;49.830;23.988;2022-12-10T04:02:54;19.67;;;11.98;;
55146;SDS011;41039;49.830;23.988;2022-12-10T04:05:19;20.90;;;13.15;;
55146;SDS011;41039;49.830;23.988;2022-12-10T04:07:44;22.10;;;13.18;;
55146;SDS011;41039;49.830;23.988;2022-12-10T04:10:09;22.27;;;12.82;;
55146;SDS011;41039;49.830;23.988;2022-12-10T04:12:35;21.80;;;13.02;;
55146;SDS011;41039;49.830;23.988;2022-12-10T04:15:00;22.48;;;12.98;;
55146;SDS011;41039;49.830;23.988;2022-12-10T04:17:44;20.50;;;12.93;;
55146;SDS011;41039;49.830;23.988;2022-12-10T04:20:09;23.42;;;14.50;;
55146;SDS011;41039;49.830;23.988;2022-12-10T04:22:55;23.52;;;13.38;;
55146;SDS011;41039;49.830;23.988;2022-12-10T04:28:22;20.38;;;12.48;;
55146;SDS011;41039;49.830;23.988;2022-12-10T04:30:47;22.40;;;12.50;;
55146;SDS011;41039;49.830;23.988;2022-12-10T04:33:13;23.02;;;14.52;;
55146;SDS011;41039;49.830;23.988;2022-12-10T04:35:38;30.02;;;16.98;;
55146;SDS011;41039;49.830;23.988;2022-12-10T04:38:03;33.05;;;20.05;;
55146;SDS011;41039;49.830;23.988;2022-12-10T04:40:28;24.67;;;15.68;;
55146;SDS011;41039;49.830;23.988;2022-12-10T04:42:53;24.95;;;16.17;;
55146;SDS011;41039;49.830;23.988;2022-12-10T04:45:19;24.58;;;15.63;;
55146;SDS011;41039;49.830;23.988;2022-12-10T04:47:44;25.85;;;13.85;;
55146;SDS011;41039;49.830;23.988;2022-12-10T04:50:09;26.73;;;15.13;;
55146;SDS011;41039;49.830;23.988;2022-12-10T04:52:34;25.83;;;14.95;;
55146;SDS011;41039;49.830;23.988;2022-12-10T04:55:00;24.67;;;14.05;;
55146;SDS011;41039;49.830;23.988;2022-12-10T04:57:25;19.20;;;12.18;;
55146;SDS011;41039;49.830;23.988;2022-12-10T04:59:50;24.67;;;13.73;;
55146;SDS011;41039;49.830;23.988;2022-12-10T05:02:15;21.83;;;12.77;;
55146;SDS011;41039;49.830;23.988;2022-12-10T05:04:41;24.00;;;13.82;;
55146;SDS011;41039;49.830;23.988;2022-12-10T05:07:06;20.80;;;13.07;;
55146;SDS011;41039;49.830;23.988;2022-12-10T05:09:31;23.75;;;14.10;;
55146;SDS011;41039;49.830;23.988;2022-12-10T05:11:56;20.70;;;13.38;;
55146;SDS011;41039;49.830;23.988;2022-12-10T05:14:22;21.45;;;13.65;;
55146;SDS011;41039;49.830;23.988;2022-12-10T05:16:49;22.15;;;14.30;;
55146;SDS011;41039;49.830;23.988;2022-12-10T05:19:14;27.25;;;15.75;;
55146;SDS011;41039;49.830;23.988;2022-12-10T05:21:39;28.85;;;16.42;;
55146;SDS011;41039;49.830;23.988;2022-12-10T05:24:43;30.38;;;16.40;;
55146;SDS011;41039;49.830;23.988;2022-12-10T05:27:08;27.17;;;16.40;;
55146;SDS011;41039;49.830;23.988;2022-12-10T05:29:33;25.55;;;15.65;;
55146;SDS011;41039;49.830;23.988;2022-12-10T05:31:59;32.65;;;18.13;;
55146;SDS011;41039;49.830;23.988;2022-12-10T05:34:24;32.80;;;17.35;;
55146;SDS011;41039;49.830;23.988;2022-12-10T05:36:49;32.15;;;17.67;;
55146;SDS011;41039;49.830;23.988;2022-12-10T05:39:15;22.58;;;14.13;;
55146;SDS011;41039;49.830;23.988;2022-12-10T05:41:41;25.63;;;16.40;;
55146;SDS011;41039;49.830;23.988;2022-12-10T05:44:06;28.40;;;16.95;;
55146;SDS011;41039;49.830;23.988;2022-12-10T05:46:33;28.35;;;15.48;;
55146;SDS011;41039;49.830;23.988;2022-12-10T05:48:59;25.27;;;15.32;;
55146;SDS011;41039;49.830;23.988;2022-12-10T05:51:26;26.88;;;15.35;;
55146;SDS011;41039;49.830;23.988;2022-12-10T05:53:52;30.48;;;17.75;;
55146;SDS011;41039;49.830;23.988;2022-12-10T05:56:18;28.63;;;18.17;;
55146;SDS011;41039;49.830;23.988;2022-12-10T05:58:44;34.17;;;18.25;;
55146;SDS011;41039;49.830;23.988;2022-12-10T06:01:14;31.25;;;18.38;;
55146;SDS011;41039;49.830;23.988;2022-12-10T06:03:40;31.08;;;18.15;;
55146;SDS011;41039;49.830;23.988;2022-12-10T06:06:05;32.75;;;17.40;;
55146;SDS011;41039;49.830;23.988;2022-12-10T06:08:31;31.25;;;16.15;;
55146;SDS011;41039;49.830;23.988;2022-12-10T06:10:57;27.55;;;15.65;;
55146;SDS011;41039;49.830;23.988;2022-12-10T06:13:25;32.33;;;15.43;;
55146;SDS011;41039;49.830;23.988;2022-12-10T06:15:50;24.20;;;13.57;;
55146;SDS011;41039;49.830;23.988;2022-12-10T06:18:15;20.85;;;13.52;;
55146;SDS011;41039;49.830;23.988;2022-12-10T06:20:41;19.50;;;10.88;;
55146;SDS011;41039;49.830;23.988;2022-12-10T06:23:06;16.63;;;9.05;;
55146;SDS011;41039;49.830;23.988;2022-12-10T06:25:31;17.10;;;10.32;;
55146;SDS011;41039;49.830;23.988;2022-12-10T06:27:57;13.68;;;8.70;;
55146;SDS011;41039;49.830;23.988;2022-12-10T06:30:22;15.55;;;9.23;;
55146;SDS011;41039;49.830;23.988;2022-12-10T06:32:47;15.30;;;9.43;;
55146;SDS011;41039;49.830;23.988;2022-12-10T06:35:13;13.50;;;8.75;;
55146;SDS011;41039;49.830;23.988;2022-12-10T06:37:38;14.27;;;9.32;;
55146;SDS011;41039;49.830;23.988;2022-12-10T06:40:03;13.40;;;8.38;;
55146;SDS011;41039;49.830;23.988;2022-12-10T06:42:29;13.10;;;8.13;;
55146;SDS011;41039;49.830;23.988;2022-12-10T06:44:54;13.00;;;8.27;;
55146;SDS011;41039;49.830;23.988;2022-12-10T06:47:20;11.98;;;7.70;;
55146;SDS011;41039;49.830;23.988;2022-12-10T06:49:45;14.60;;;8.88;;
55146;SDS011;41039;49.830;23.988;2022-12-10T06:52:10;19.15;;;10.35;;
55146;SDS011;41039;49.830;23.988;2022-12-10T06:54:35;21.20;;;11.48;;
55146;SDS011;41039;49.830;23.988;2022-12-10T06:57:01;19.15;;;11.05;;
55146;SDS011;41039;49.830;23.988;2022-12-10T06:59:26;19.25;;;11.38;;
55146;SDS011;41039;49.830;23.988;2022-12-10T07:01:51;19.73;;;12.68;;
55146;SDS011;41039;49.830;23.988;2022-12-10T07:04:16;18.63;;;11.77;;
55146;SDS011;41039;49.830;23.988;2022-12-10T07:06:42;19.60;;;10.25;;
55146;SDS011;41039;49.830;23.988;2022-12-10T07:09:07;22.00;;;11.27;;
55146;SDS011;41039;49.830;23.988;2022-12-10T07:11:34;20.15;;;10.88;;
55146;SDS011;41039;49.830;23.988;2022-12-10T07:13:59;19.38;;;11.75;;
55146;SDS011;41039;49.830;23.988;2022-12-10T07:16:26;15.20;;;9.45;;
55146;SDS011;41039;49.830;23.988;2022-12-10T07:18:52;16.55;;;11.20;;
55146;SDS011;41039;49.830;23.988;2022-12-10T07:21:21;19.13;;;12.48;;
55146;SDS011;41039;49.830;23.988;2022-12-10T07:23:47;30.08;;;14.50;;
55146;SDS011;41039;49.830;23.988;2022-12-10T07:26:12;20.20;;;12.23;;
55146;SDS011;41039;49.830;23.988;2022-12-10T07:28:38;18.83;;;11.90;;
55146;SDS011;41039;49.830;23.988;2022-12-10T07:31:04;21.75;;;12.38;;
55146;SDS011;41039;49.830;23.988;2022-12-10T07:33:30;19.10;;;12.18;;
55146;SDS011;41039;49.830;23.988;2022-12-10T07:35:55;18.65;;;11.07;;
55146;SDS011;41039;49.830;23.988;2022-12-10T07:38:21;17.83;;;10.90;;
55146;SDS011;41039;49.830;23.988;2022-12-10T07:40:46;16.02;;;10.25;;
55146;SDS011;41039;49.830;23.988;2022-12-10T07:43:11;21.70;;;13.80;;
55146;SDS011;41039;49.830;23.988;2022-12-10T07:45:37;17.33;;;10.45;;
55146;SDS011;41039;49.830;23.988;2022-12-10T07:48:02;15.77;;;9.98;;
55146;SDS011;41039;49.830;23.988;2022-12-10T07:50:27;16.52;;;10.82;;
55146;SDS011;41039;49.830;23.988;2022-12-10T07:52:52;16.90;;;11.23;;
55146;SDS011;41039;49.830;23.988;2022-12-10T07:55:18;17.50;;;11.15;;
55146;SDS011;41039;49.830;23.988;2022-12-10T07:57:43;20.75;;;12.63;;
55146;SDS011;41039;49.830;23.988;2022-12-10T08:00:08;20.88;;;12.68;;
55146;SDS011;41039;49.830;23.988;2022-12-10T08:02:34;27.65;;;16.98;;
55146;SDS011;41039;49.830;23.988;2022-12-10T08:05:00;26.38;;;18.27;;
55146;SDS011;41039;49.830;23.988;2022-12-10T08:07:25;24.67;;;15.18;;
55146;SDS011;41039;49.830;23.988;2022-12-10T08:09:50;25.50;;;16.00;;
55146;SDS011;41039;49.830;23.988;2022-12-10T08:12:15;24.73;;;16.80;;
55146;SDS011;41039;49.830;23.988;2022-12-10T08:14:41;27.35;;;18.30;;
55146;SDS011;41039;49.830;23.988;2022-12-10T08:17:06;24.02;;;15.48;;
55146;SDS011;41039;49.830;23.988;2022-12-10T08:19:31;25.23;;;15.35;;
55146;SDS011;41039;49.830;23.988;2022-12-10T08:21:56;22.27;;;13.55;;
55146;SDS011;41039;49.830;23.988;2022-12-10T08:24:22;20.38;;;13.57;;
55146;SDS011;41039;49.830;23.988;2022-12-10T08:26:47;22.13;;;13.77;;
55146;SDS011;41039;49.830;23.988;2022-12-10T08:29:12;22.55;;;13.20;;
55146;SDS011;41039;49.830;23.988;2022-12-10T08:31:37;24.00;;;14.25;;
55146;SDS011;41039;49.830;23.988;2022-12-10T08:34:03;23.73;;;14.93;;
55146;SDS011;41039;49.830;23.988;2022-12-10T08:36:29;26.55;;;16.85;;
55146;SDS011;41039;49.830;23.988;2022-12-10T08:38:55;30.40;;;17.77;;
55146;SDS011;41039;49.830;23.988;2022-12-10T08:41:21;30.95;;;19.00;;
55146;SDS011;41039;49.830;23.988;2022-12-10T08:43:47;34.17;;;20.33;;
55146;SDS011;41039;49.830;23.988;2022-12-10T08:46:13;29.65;;;15.75;;
55146;SDS011;41039;49.830;23.988;2022-12-10T08:48:39;24.38;;;14.38;;
55146;SDS011;41039;49.830;23.988;2022-12-10T08:51:04;24.70;;;14.15;;
55146;SDS011;41039;49.830;23.988;2022-12-10T08:53:30;23.65;;;13.77;;
55146;SDS011;41039;49.830;23.988;2022-12-10T08:55:55;21.35;;;12.88;;
55146;SDS011;41039;49.830;23.988;2022-12-10T08:58:21;20.65;;;11.95;;
55146;SDS011;41039;49.830;23.988;2022-12-10T09:00:47;18.98;;;11.02;;
55146;SDS011;41039;49.830;23.988;2022-12-10T09:03:12;17.52;;;10.00;;
55146;SDS011;41039;49.830;23.988;2022-12-10T09:05:37;18.58;;;10.70;;
55146;SDS011;41039;49.830;23.988;2022-12-10T09:08:03;17.95;;;10.02;;
55146;SDS011;41039;49.830;23.988;2022-12-10T09:10:28;19.42;;;11.10;;
55146;SDS011;41039;49.830;23.988;2022-12-10T09:12:54;16.98;;;8.98;;
55146;SDS011;41039;49.830;23.988;2022-12-10T09:15:19;16.92;;;10.05;;
55146;SDS011;41039;49.830;23.988;2022-12-10T09:17:44;16.33;;;9.38;;
55146;SDS011;41039;49.830;23.988;2022-12-10T09:20:09;16.58;;;10.93;;
55146;SDS011;41039;49.830;23.988;2022-12-10T09:22:35;13.60;;;7.85;;
55146;SDS011;41039;49.830;23.988;2022-12-10T09:25:03;12.15;;;7.68;;
55146;SDS011;41039;49.830;23.988;2022-12-10T09:27:29;13.07;;;7.95;;
55146;SDS011;41039;49.830;23.988;2022-12-10T09:29:54;11.40;;;6.97;;
55146;SDS011;41039;49.830;23.988;2022-12-10T09:32:19;9.20;;;6.47;;
55146;SDS011;41039;49.830;23.988;2022-12-10T09:34:45;8.82;;;6.13;;
55146;SDS011;41039;49.830;23.988;2022-12-10T09:37:10;11.98;;;7.03;;
55146;SDS011;41039;49.830;23.988;2022-12-10T09:39:35;22.55;;;10.38;;
55146;SDS011;41039;49.830;23.988;2022-12-10T09:44:37;15.73;;;8.95;;
55146;SDS011;41039;49.830;23.988;2022-12-10T09:47:08;15.38;;;8.07;;
55146;SDS011;41039;49.830;23.988;2022-12-10T09:52:14;15.07;;;7.85;;
55146;SDS011;41039;49.830;23.988;2022-12-10T09:54:42;11.85;;;6.10;;
55146;SDS011;41039;49.830;23.988;2022-12-10T09:57:10;8.95;;;5.45;;
55146;SDS011;41039;49.830;23.988;2022-12-10T09:59:42;13.05;;;7.50;;
55146;SDS011;41039;49.830;23.988;2022-12-10T10:04:49;14.60;;;8.98;;
55146;SDS011;41039;49.830;23.988;2022-12-10T10:07:21;12.05;;;7.13;;
55146;SDS011;41039;49.830;23.988;2022-12-10T10:09:47;12.95;;;7.78;;
55146;SDS011;41039;49.830;23.988;2022-12-10T10:12:13;12.60;;;8.05;;
55146;SDS011;41039;49.830;23.988;2022-12-10T10:14:39;12.05;;;7.97;;
55146;SDS011;41039;49.830;23.988;2022-12-10T10:17:10;16.88;;;8.38;;
55146;SDS011;41039;49.830;23.988;2022-12-10T10:19:37;11.30;;;7.30;;
55146;SDS011;41039;49.830;23.988;2022-12-10T10:22:04;13.75;;;7.38;;
55146;SDS011;41039;49.830;23.988;2022-12-10T10:24:34;12.73;;;7.10;;
55146;SDS011;41039;49.830;23.988;2022-12-10T10:27:01;10.75;;;6.82;;
55146;SDS011;41039;49.830;23.988;2022-12-10T10:29:35;10.95;;;7.13;;
55146;SDS011;41039;49.830;23.988;2022-12-10T10:32:11;9.80;;;6.65;;
55146;SDS011;41039;49.830;23.988;2022-12-10T10:34:38;12.45;;;7.18;;
55146;SDS011;41039;49.830;23.988;2022-12-10T10:37:04;11.65;;;7.45;;
55146;SDS011;41039;49.830;23.988;2022-12-10T10:39:30;12.02;;;7.57;;
55146;SDS011;41039;49.830;23.988;2022-12-10T10:41:56;13.45;;;7.70;;
55146;SDS011;41039;49.830;23.988;2022-12-10T10:44:23;13.93;;;8.93;;
55146;SDS011;41039;49.830;23.988;2022-12-10T10:46:51;14.13;;;8.52;;
55146;SDS011;41039;49.830;23.988;2022-12-10T10:49:26;13.65;;;9.02;;
55146;SDS011;41039;49.830;23.988;2022-12-10T10:51:53;17.02;;;9.45;;
55146;SDS011;41039;49.830;23.988;2022-12-10T10:54:37;12.45;;;7.55;;
55146;SDS011;41039;49.830;23.988;2022-12-10T10:57:03;10.55;;;7.00;;
55146;SDS011;41039;49.830;23.988;2022-12-10T10:59:30;10.15;;;6.07;;
55146;SDS011;41039;49.830;23.988;2022-12-10T11:02:30;9.98;;;6.05;;
55146;SDS011;41039;49.830;23.988;2022-12-10T11:04:49;10.38;;;6.85;;
55146;SDS011;41039;49.830;23.988;2022-12-10T11:07:19;8.27;;;6.25;;
55146;SDS011;41039;49.830;23.988;2022-12-10T11:09:45;9.38;;;6.03;;
55146;SDS011;41039;49.830;23.988;2022-12-10T11:12:56;10.38;;;6.07;;
55146;SDS011;41039;49.830;23.988;2022-12-10T11:14:56;10.05;;;6.38;;
55146;SDS011;41039;49.830;23.988;2022-12-10T11:17:22;10.60;;;6.68;;
55146;SDS011;41039;49.830;23.988;2022-12-10T11:19:59;9.77;;;6.63;;
55146;SDS011;41039;49.830;23.988;2022-12-10T11:22:28;9.80;;;5.82;;
55146;SDS011;41039;49.830;23.988;2022-12-10T11:24:54;11.35;;;6.63;;
55146;SDS011;41039;49.830;23.988;2022-12-10T11:32:31;16.73;;;8.07;;
55146;SDS011;41039;49.830;23.988;2022-12-10T11:37:31;11.82;;;6.78;;
55146;SDS011;41039;49.830;23.988;2022-12-10T11:53:08;11.30;;;6.80;;
55146;SDS011;41039;49.830;23.988;2022-12-10T12:00:36;6.07;;;3.25;;
55146;SDS011;41039;49.830;23.988;2022-12-10T12:08:17;9.30;;;4.93;;
55146;SDS011;41039;49.830;23.988;2022-12-10T12:16:08;9.80;;;5.50;;
55146;SDS011;41039;49.830;23.988;2022-12-10T12:21:08;13.45;;;5.43;;
55146;SDS011;41039;49.830;23.988;2022-12-10T12:23:37;7.30;;;4.43;;
55146;SDS011;41039;49.830;23.988;2022-12-10T12:26:07;9.60;;;5.93;;
55146;SDS011;41039;49.830;23.988;2022-12-10T12:28:42;6.22;;;4.65;;
55146;SDS011;41039;49.830;23.988;2022-12-10T12:31:15;10.65;;;5.78;;
55146;SDS011;41039;49.830;23.988;2022-12-10T12:36:12;9.32;;;5.50;;
55146;SDS011;41039;49.830;23.988;2022-12-10T12:38:48;11.48;;;6.47;;
55146;SDS011;41039;49.830;23.988;2022-12-10T12:41:25;8.73;;;5.90;;
55146;SDS011;41039;49.830;23.988;2022-12-10T12:46:35;10.80;;;6.60;;
55146;SDS011;41039;49.830;23.988;2022-12-10T12:49:06;11.15;;;7.10;;
55146;SDS011;41039;49.830;23.988;2022-12-10T12:51:40;13.00;;;7.70;;
55146;SDS011;41039;49.830;23.988;2022-12-10T12:54:16;14.27;;;8.43;;
55146;SDS011;41039;49.830;23.988;2022-12-10T13:01:48;14.75;;;7.40;;
55146;SDS011;41039;49.830;23.988;2022-12-10T13:04:15;11.98;;;8.13;;
55146;SDS011;41039;49.830;23.988;2022-12-10T13:06:40;10.57;;;6.97;;
55146;SDS011;41039;49.830;23.988;2022-12-10T13:11:41;11.02;;;7.30;;
55146;SDS011;41039;49.830;23.988;2022-12-10T13:24:21;15.02;;;8.20;;
55146;SDS011;41039;49.830;23.988;2022-12-10T13:34:42;15.23;;;8.93;;
55146;SDS011;41039;49.830;23.988;2022-12-10T13:37:15;13.02;;;7.82;;
55146;SDS011;41039;49.830;23.988;2022-12-10T13:39:48;13.48;;;8.98;;
55146;SDS011;41039;49.830;23.988;2022-12-10T13:47:48;14.23;;;9.18;;
55146;SDS011;41039;49.830;23.988;2022-12-10T13:50:20;16.27;;;9.43;;
55146;SDS011;41039;49.830;23.988;2022-12-10T14:00:29;19.75;;;11.45;;
55146;SDS011;41039;49.830;23.988;2022-12-10T14:08:05;18.58;;;9.48;;
55146;SDS011;41039;49.830;23.988;2022-12-10T14:10:34;19.02;;;10.32;;
55146;SDS011;41039;49.830;23.988;2022-12-10T14:13:04;22.63;;;11.85;;
55146;SDS011;41039;49.830;23.988;2022-12-10T14:15:30;16.00;;;8.80;;
55146;SDS011;41039;49.830;23.988;2022-12-10T14:18:03;20.00;;;10.85;;
55146;SDS011;41039;49.830;23.988;2022-12-10T14:20:32;15.50;;;10.10;;
55146;SDS011;41039;49.830;23.988;2022-12-10T14:23:02;18.10;;;10.70;;
55146;SDS011;41039;49.830;23.988;2022-12-10T14:25:48;14.75;;;9.88;;
55146;SDS011;41039;49.830;23.988;2022-12-10T14:28:14;17.50;;;10.70;;
55146;SDS011;41039;49.830;23.988;2022-12-10T14:30:44;17.30;;;10.57;;
55146;SDS011;41039;49.830;23.988;2022-12-10T14:33:10;18.65;;;10.10;;
55146;SDS011;41039;49.830;23.988;2022-12-10T14:35:39;15.95;;;9.25;;
55146;SDS011;41039;49.830;23.988;2022-12-10T14:38:05;20.05;;;11.20;;
55146;SDS011;41039;49.830;23.988;2022-12-10T14:40:40;21.02;;;11.98;;
55146;SDS011;41039;49.830;23.988;2022-12-10T14:43:06;30.77;;;18.48;;
55146;SDS011;41039;49.830;23.988;2022-12-10T14:45:42;21.25;;;11.63;;
55146;SDS011;41039;49.830;23.988;2022-12-10T14:48:10;20.02;;;12.23;;
55146;SDS011;41039;49.830;23.988;2022-12-10T14:50:36;15.27;;;9.45;;
55146;SDS011;41039;49.830;23.988;2022-12-10T14:53:02;14.40;;;9.02;;
55146;SDS011;41039;49.830;23.988;2022-12-10T14:55:28;17.92;;;10.02;;
55146;SDS011;41039;49.830;23.988;2022-12-10T14:57:54;12.30;;;8.52;;
55146;SDS011;41039;49.830;23.988;2022-12-10T15:00:21;23.17;;;12.63;;
55146;SDS011;41039;49.830;23.988;2022-12-10T15:03:21;14.65;;;8.35;;
55146;SDS011;41039;49.830;23.988;2022-12-10T15:05:38;14.52;;;8.73;;
55146;SDS011;41039;49.830;23.988;2022-12-10T15:08:04;13.30;;;8.30;;
55146;SDS011;41039;49.830;23.988;2022-12-10T15:10:37;14.40;;;8.80;;
55146;SDS011;41039;49.830;23.988;2022-12-10T15:13:03;14.30;;;8.37;;
55146;SDS011;41039;49.830;23.988;2022-12-10T15:21:05;13.68;;;8.32;;
55146;SDS011;41039;49.830;23.988;2022-12-10T15:23:11;14.75;;;8.38;;
55146;SDS011;41039;49.830;23.988;2022-12-10T15:26:15;13.48;;;8.45;;
55146;SDS011;41039;49.830;23.988;2022-12-10T15:28:36;19.08;;;10.98;;
55146;SDS011;41039;49.830;23.988;2022-12-10T15:38:45;18.33;;;11.02;;
55146;SDS011;41039;49.830;23.988;2022-12-10T15:41:21;19.25;;;10.77;;
55146;SDS011;41039;49.830;23.988;2022-12-10T15:44:04;23.48;;;12.60;;
55146;SDS011;41039;49.830;23.988;2022-12-10T15:46:29;20.58;;;10.82;;
55146;SDS011;41039;49.830;23.988;2022-12-10T15:48:54;25.60;;;15.05;;
55146;SDS011;41039;49.830;23.988;2022-12-10T15:51:20;28.02;;;16.00;;
55146;SDS011;41039;49.830;23.988;2022-12-10T15:53:45;26.35;;;13.77;;
55146;SDS011;41039;49.830;23.988;2022-12-10T15:56:10;26.13;;;15.00;;
55146;SDS011;41039;49.830;23.988;2022-12-10T15:58:36;25.13;;;11.40;;
55146;SDS011;41039;49.830;23.988;2022-12-10T16:01:01;21.35;;;13.18;;
55146;SDS011;41039;49.830;23.988;2022-12-10T16:03:27;29.90;;;17.40;;
55146;SDS011;41039;49.830;23.988;2022-12-10T16:05:53;23.65;;;12.70;;
55146;SDS011;41039;49.830;23.988;2022-12-10T16:10:44;29.30;;;11.60;;
55146;SDS011;41039;49.830;23.988;2022-12-10T16:13:30;34.55;;;14.25;;
55146;SDS011;41039;49.830;23.988;2022-12-10T16:15:57;25.40;;;12.52;;
55146;SDS011;41039;49.830;23.988;2022-12-10T16:18:23;21.52;;;10.80;;
55146;SDS011;41039;49.830;23.988;2022-12-10T16:20:49;17.90;;;10.27;;
55146;SDS011;41039;49.830;23.988;2022-12-10T16:23:15;18.63;;;10.57;;